sensor_id;sensor_type;location;lat;lon;timestamp;pressure;altitude;pressure_sealevel;temperature;humidity
55757;BME280;41676;44.610;44.078;2023-07-31T00:00:49;99693.53;;;19.68;90.90
55757;BME280;41676;44.610;44.078;2023-07-31T00:05:50;99790.88;;;20.17;91.23
55757;BME280;41676;44.610;44.078;2023-07-31T00:10:53;99769.88;;;20.02;93.40
55757;BME280;41676;44.610;44.078;2023-07-31T00:15:54;99790.91;;;20.34;93.56
55757;BME280;41676;44.610;44.078;2023-07-31T00:20:55;99680.03;;;19.51;91.36
55757;BME280;41676;44.610;44.078;2023-07-31T00:25:55;99777.31;;;19.95;92.25
55757;BME280;41676;44.610;44.078;2023-07-31T00:30:56;99725.75;;;19.46;92.92
55757;BME280;41676;44.610;44.078;2023-07-31T00:35:57;99699.63;;;19.18;93.06
55757;BME280;41676;44.610;44.078;2023-07-31T00:40:58;99807.25;;;19.82;93.44
55757;BME280;41676;44.610;44.078;2023-07-31T00:45:58;99742.28;;;19.38;93.94
55757;BME280;41676;44.610;44.078;2023-07-31T00:50:59;99811.78;;;19.93;94.27
55757;BME280;41676;44.610;44.078;2023-07-31T00:56:01;99800.09;;;19.88;94.16
55757;BME280;41676;44.610;44.078;2023-07-31T01:01:02;99805.69;;;19.69;93.99
55757;BME280;41676;44.610;44.078;2023-07-31T01:06:18;99642.94;;;18.56;96.28
55757;BME280;41676;44.610;44.078;2023-07-31T01:11:28;99822.00;;;19.51;96.26
55757;BME280;41676;44.610;44.078;2023-07-31T01:16:29;99809.25;;;19.46;95.25
55757;BME280;41676;44.610;44.078;2023-07-31T01:21:46;99807.88;;;19.32;98.29
55757;BME280;41676;44.610;44.078;2023-07-31T01:27:15;99792.59;;;19.21;98.50
55757;BME280;41676;44.610;44.078;2023-07-31T01:32:18;99641.91;;;18.21;95.76
55757;BME280;41676;44.610;44.078;2023-07-31T01:37:20;99749.13;;;18.77;96.15
55757;BME280;41676;44.610;44.078;2023-07-31T01:42:20;99822.28;;;19.26;96.33
55757;BME280;41676;44.610;44.078;2023-07-31T01:47:21;99820.31;;;19.21;96.30
55757;BME280;41676;44.610;44.078;2023-07-31T01:52:22;99810.13;;;19.23;96.42
55757;BME280;41676;44.610;44.078;2023-07-31T01:57:23;99836.31;;;19.39;96.46
55757;BME280;41676;44.610;44.078;2023-07-31T02:02:23;99621.81;;;18.00;95.86
55757;BME280;41676;44.610;44.078;2023-07-31T02:07:24;99793.19;;;18.99;95.85
55757;BME280;41676;44.610;44.078;2023-07-31T02:12:25;99715.22;;;18.52;95.87
55757;BME280;41676;44.610;44.078;2023-07-31T02:17:26;99767.81;;;18.95;96.24
55757;BME280;41676;44.610;44.078;2023-07-31T02:22:26;99778.88;;;19.22;96.30
55757;BME280;41676;44.610;44.078;2023-07-31T02:27:27;99716.59;;;18.78;95.73
55757;BME280;41676;44.610;44.078;2023-07-31T02:32:28;99758.25;;;19.28;95.69
55757;BME280;41676;44.610;44.078;2023-07-31T02:37:29;99843.16;;;19.99;95.56
55757;BME280;41676;44.610;44.078;2023-07-31T02:42:29;99781.94;;;19.83;95.63
55757;BME280;41676;44.610;44.078;2023-07-31T02:47:30;99765.41;;;20.08;95.31
55757;BME280;41676;44.610;44.078;2023-07-31T02:52:31;99856.28;;;21.31;94.12
55757;BME280;41676;44.610;44.078;2023-07-31T02:57:32;99815.75;;;22.02;91.80
55757;BME280;41676;44.610;44.078;2023-07-31T03:02:33;99846.03;;;22.95;88.43
55757;BME280;41676;44.610;44.078;2023-07-31T03:07:33;99751.84;;;23.13;84.80
55757;BME280;41676;44.610;44.078;2023-07-31T03:12:35;99768.03;;;24.01;81.10
55757;BME280;41676;44.610;44.078;2023-07-31T03:17:36;99852.88;;;25.40;77.82
55757;BME280;41676;44.610;44.078;2023-07-31T03:22:37;99840.66;;;26.31;73.22
55757;BME280;41676;44.610;44.078;2023-07-31T03:27:38;99843.16;;;27.39;69.27
55757;BME280;41676;44.610;44.078;2023-07-31T03:32:39;99751.59;;;27.90;64.97
55757;BME280;41676;44.610;44.078;2023-07-31T03:37:39;99828.28;;;29.05;61.71
55757;BME280;41676;44.610;44.078;2023-07-31T03:42:40;99823.47;;;30.02;59.59
55757;BME280;41676;44.610;44.078;2023-07-31T03:47:41;99834.22;;;30.89;56.43
55757;BME280;41676;44.610;44.078;2023-07-31T03:52:42;99799.44;;;31.15;54.04
55757;BME280;41676;44.610;44.078;2023-07-31T03:57:42;99823.31;;;31.64;53.06
55757;BME280;41676;44.610;44.078;2023-07-31T04:02:43;99861.78;;;31.81;52.24
55757;BME280;41676;44.610;44.078;2023-07-31T04:07:44;99807.34;;;31.92;51.23
55757;BME280;41676;44.610;44.078;2023-07-31T04:12:45;99849.97;;;32.59;50.45
55757;BME280;41676;44.610;44.078;2023-07-31T04:17:45;99839.59;;;32.64;50.16
55757;BME280;41676;44.610;44.078;2023-07-31T04:22:46;99775.53;;;31.91;50.45
55757;BME280;41676;44.610;44.078;2023-07-31T04:27:47;99815.72;;;32.21;49.48
55757;BME280;41676;44.610;44.078;2023-07-31T04:32:48;99857.06;;;32.60;48.97
55757;BME280;41676;44.610;44.078;2023-07-31T04:37:48;99808.09;;;32.36;48.96
55757;BME280;41676;44.610;44.078;2023-07-31T04:42:49;99856.66;;;32.87;47.84
55757;BME280;41676;44.610;44.078;2023-07-31T04:47:50;99768.53;;;32.28;47.91
55757;BME280;41676;44.610;44.078;2023-07-31T04:52:51;99850.72;;;32.77;47.81
55757;BME280;41676;44.610;44.078;2023-07-31T04:57:51;99773.72;;;32.03;47.40
55757;BME280;41676;44.610;44.078;2023-07-31T05:02:52;99858.53;;;32.40;47.41
55757;BME280;41676;44.610;44.078;2023-07-31T05:07:53;99829.47;;;31.78;47.34
55757;BME280;41676;44.610;44.078;2023-07-31T05:12:54;99853.66;;;31.67;48.38
55757;BME280;41676;44.610;44.078;2023-07-31T05:17:54;99783.88;;;30.85;49.38
55757;BME280;41676;44.610;44.078;2023-07-31T05:22:55;99746.03;;;30.33;48.88
55757;BME280;41676;44.610;44.078;2023-07-31T05:27:56;99840.44;;;30.81;47.58
55757;BME280;41676;44.610;44.078;2023-07-31T05:32:57;99747.50;;;30.39;47.42
55757;BME280;41676;44.610;44.078;2023-07-31T05:37:57;99756.81;;;30.61;46.82
55757;BME280;41676;44.610;44.078;2023-07-31T05:42:58;99833.97;;;31.16;45.64
55757;BME280;41676;44.610;44.078;2023-07-31T05:47:59;99835.00;;;31.29;44.28
55757;BME280;41676;44.610;44.078;2023-07-31T05:53:00;99834.22;;;31.37;42.72
55757;BME280;41676;44.610;44.078;2023-07-31T05:58:00;99758.84;;;30.86;40.46
55757;BME280;41676;44.610;44.078;2023-07-31T06:03:01;99843.00;;;31.48;40.78
55757;BME280;41676;44.610;44.078;2023-07-31T06:08:02;99734.84;;;30.92;39.62
55757;BME280;41676;44.610;44.078;2023-07-31T06:13:03;99842.31;;;31.43;39.49
55757;BME280;41676;44.610;44.078;2023-07-31T06:18:04;99758.94;;;31.12;39.20
55757;BME280;41676;44.610;44.078;2023-07-31T06:23:07;99831.69;;;31.67;38.58
55757;BME280;41676;44.610;44.078;2023-07-31T06:28:08;99734.88;;;31.09;38.71
55757;BME280;41676;44.610;44.078;2023-07-31T06:33:09;99842.41;;;31.95;39.00
55757;BME280;41676;44.610;44.078;2023-07-31T06:38:10;99836.09;;;32.03;37.56
55757;BME280;41676;44.610;44.078;2023-07-31T06:43:10;99823.97;;;31.87;36.61
55757;BME280;41676;44.610;44.078;2023-07-31T06:48:11;99724.41;;;31.29;37.99
55757;BME280;41676;44.610;44.078;2023-07-31T06:53:12;99790.22;;;31.69;37.03
55757;BME280;41676;44.610;44.078;2023-07-31T06:58:13;99820.91;;;31.97;36.63
55757;BME280;41676;44.610;44.078;2023-07-31T07:03:14;99811.06;;;32.13;37.53
55757;BME280;41676;44.610;44.078;2023-07-31T07:08:15;99718.31;;;31.67;36.14
55757;BME280;41676;44.610;44.078;2023-07-31T07:13:17;99817.03;;;32.06;35.87
55757;BME280;41676;44.610;44.078;2023-07-31T07:18:18;99804.91;;;32.16;36.49
55757;BME280;41676;44.610;44.078;2023-07-31T07:23:20;99807.16;;;32.49;35.81
55757;BME280;41676;44.610;44.078;2023-07-31T07:28:21;99728.72;;;32.34;36.30
55757;BME280;41676;44.610;44.078;2023-07-31T07:33:21;99792.41;;;32.92;35.51
55757;BME280;41676;44.610;44.078;2023-07-31T07:38:22;99797.72;;;33.06;35.21
55757;BME280;41676;44.610;44.078;2023-07-31T07:43:23;99775.25;;;32.95;34.92
55757;BME280;41676;44.610;44.078;2023-07-31T07:48:24;99763.03;;;33.13;34.74
55757;BME280;41676;44.610;44.078;2023-07-31T07:53:25;99787.91;;;33.47;35.14
55757;BME280;41676;44.610;44.078;2023-07-31T07:58:26;99771.34;;;33.55;34.78
55757;BME280;41676;44.610;44.078;2023-07-31T08:03:27;99763.91;;;33.26;34.44
55757;BME280;41676;44.610;44.078;2023-07-31T08:08:28;99700.81;;;33.00;33.94
55757;BME280;41676;44.610;44.078;2023-07-31T08:13:29;99763.91;;;33.47;33.39
55757;BME280;41676;44.610;44.078;2023-07-31T08:18:31;99742.78;;;33.39;33.92
55757;BME280;41676;44.610;44.078;2023-07-31T08:23:33;99600.88;;;32.58;34.05
55757;BME280;41676;44.610;44.078;2023-07-31T08:28:33;99731.22;;;33.46;33.81
55757;BME280;41676;44.610;44.078;2023-07-31T08:33:35;99729.03;;;33.39;33.46
55757;BME280;41676;44.610;44.078;2023-07-31T08:38:36;99741.66;;;33.61;33.58
55757;BME280;41676;44.610;44.078;2023-07-31T08:43:37;99657.44;;;33.18;33.91
55757;BME280;41676;44.610;44.078;2023-07-31T08:48:38;99712.28;;;33.65;33.30
55757;BME280;41676;44.610;44.078;2023-07-31T08:53:41;99724.41;;;33.85;33.43
55757;BME280;41676;44.610;44.078;2023-07-31T08:58:42;99712.03;;;33.91;33.42
55757;BME280;41676;44.610;44.078;2023-07-31T09:03:44;99657.53;;;33.51;32.40
55757;BME280;41676;44.610;44.078;2023-07-31T09:08:45;99582.66;;;33.16;32.95
55757;BME280;41676;44.610;44.078;2023-07-31T09:13:46;99705.91;;;34.06;32.85
55757;BME280;41676;44.610;44.078;2023-07-31T09:18:55;99712.56;;;34.05;32.13
55757;BME280;41676;44.610;44.078;2023-07-31T09:23:57;99691.59;;;33.92;32.15
55757;BME280;41676;44.610;44.078;2023-07-31T09:28:59;99706.09;;;34.01;32.61
55757;BME280;41676;44.610;44.078;2023-07-31T09:34:00;99698.19;;;34.00;32.51
55757;BME280;41676;44.610;44.078;2023-07-31T09:39:04;99706.09;;;34.01;31.96
55757;BME280;41676;44.610;44.078;2023-07-31T09:44:05;99692.03;;;33.82;31.77
55757;BME280;41676;44.610;44.078;2023-07-31T09:49:10;99673.00;;;33.56;32.33
55757;BME280;41676;44.610;44.078;2023-07-31T09:54:13;99696.31;;;33.58;31.68
55757;BME280;41676;44.610;44.078;2023-07-31T09:59:20;99679.94;;;33.74;32.63
55757;BME280;41676;44.610;44.078;2023-07-31T10:04:23;99667.50;;;34.01;32.85
55757;BME280;41676;44.610;44.078;2023-07-31T10:09:29;99608.91;;;33.68;32.13
55757;BME280;41676;44.610;44.078;2023-07-31T10:14:32;99680.31;;;34.18;31.82
55757;BME280;41676;44.610;44.078;2023-07-31T10:19:35;99644.34;;;34.02;31.35
55757;BME280;41676;44.610;44.078;2023-07-31T10:24:36;99626.66;;;34.03;31.72
55757;BME280;41676;44.610;44.078;2023-07-31T10:29:38;99599.28;;;33.86;32.02
55757;BME280;41676;44.610;44.078;2023-07-31T10:34:42;99602.75;;;33.95;31.31
55757;BME280;41676;44.610;44.078;2023-07-31T10:39:43;99596.53;;;33.98;30.98
55757;BME280;41676;44.610;44.078;2023-07-31T10:44:46;99654.16;;;34.37;31.57
55757;BME280;41676;44.610;44.078;2023-07-31T10:49:48;99622.28;;;34.02;30.90
55757;BME280;41676;44.610;44.078;2023-07-31T10:54:49;99607.84;;;34.05;31.39
55757;BME280;41676;44.610;44.078;2023-07-31T10:59:51;99636.22;;;34.18;31.49
55757;BME280;41676;44.610;44.078;2023-07-31T11:05:10;99620.03;;;34.04;31.45
55757;BME280;41676;44.610;44.078;2023-07-31T11:10:11;99648.75;;;34.40;31.92
55757;BME280;41676;44.610;44.078;2023-07-31T11:15:12;99517.75;;;33.48;30.77
55757;BME280;41676;44.610;44.078;2023-07-31T11:20:12;99560.97;;;33.81;32.38
55757;BME280;41676;44.610;44.078;2023-07-31T11:25:14;99635.19;;;34.11;31.75
55757;BME280;41676;44.610;44.078;2023-07-31T11:30:18;99585.63;;;33.77;30.41
55757;BME280;41676;44.610;44.078;2023-07-31T11:35:19;99598.38;;;33.82;30.99
55757;BME280;41676;44.610;44.078;2023-07-31T11:40:20;99626.69;;;34.16;31.63
55757;BME280;41676;44.610;44.078;2023-07-31T11:45:21;99602.81;;;34.20;32.09
55757;BME280;41676;44.610;44.078;2023-07-31T11:50:24;99602.81;;;34.20;32.00
55757;BME280;41676;44.610;44.078;2023-07-31T11:55:27;99546.69;;;33.54;31.68
55757;BME280;41676;44.610;44.078;2023-07-31T12:00:27;99603.69;;;33.99;32.04
55757;BME280;41676;44.610;44.078;2023-07-31T12:05:29;99605.56;;;34.07;32.13
55757;BME280;41676;44.610;44.078;2023-07-31T12:10:31;99601.97;;;34.19;31.86
55757;BME280;41676;44.610;44.078;2023-07-31T12:20:34;99584.22;;;34.17;31.75
55757;BME280;41676;44.610;44.078;2023-07-31T12:25:35;99597.63;;;34.30;32.06
55757;BME280;41676;44.610;44.078;2023-07-31T12:30:37;99553.91;;;34.04;31.31
55757;BME280;41676;44.610;44.078;2023-07-31T12:35:41;99531.56;;;33.60;32.50
55757;BME280;41676;44.610;44.078;2023-07-31T12:40:42;99560.13;;;33.80;31.93
55757;BME280;41676;44.610;44.078;2023-07-31T12:45:43;99555.09;;;33.82;31.50
55757;BME280;41676;44.610;44.078;2023-07-31T12:50:43;99551.06;;;33.80;31.93
55757;BME280;41676;44.610;44.078;2023-07-31T12:55:44;99593.78;;;33.86;31.92
55757;BME280;41676;44.610;44.078;2023-07-31T13:00:45;99473.28;;;33.13;32.88
55757;BME280;41676;44.610;44.078;2023-07-31T13:05:46;99565.31;;;33.82;32.12
55757;BME280;41676;44.610;44.078;2023-07-31T13:10:47;99585.50;;;33.86;32.20
55757;BME280;41676;44.610;44.078;2023-07-31T13:15:47;99581.38;;;33.92;32.82
55757;BME280;41676;44.610;44.078;2023-07-31T13:20:48;99583.09;;;33.72;32.32
55757;BME280;41676;44.610;44.078;2023-07-31T13:25:49;99558.34;;;33.39;33.08
55757;BME280;41676;44.610;44.078;2023-07-31T13:30:50;99537.97;;;32.77;33.15
55757;BME280;41676;44.610;44.078;2023-07-31T13:35:50;99588.16;;;32.74;34.09
55757;BME280;41676;44.610;44.078;2023-07-31T13:40:51;99589.81;;;32.87;33.21
55757;BME280;41676;44.610;44.078;2023-07-31T13:45:52;99544.31;;;32.18;33.63
55757;BME280;41676;44.610;44.078;2023-07-31T13:50:53;99559.56;;;32.45;33.79
55757;BME280;41676;44.610;44.078;2023-07-31T13:55:53;99603.44;;;32.84;33.86
55757;BME280;41676;44.610;44.078;2023-07-31T14:00:54;99532.69;;;32.51;33.69
55757;BME280;41676;44.610;44.078;2023-07-31T14:05:55;99516.59;;;32.11;33.79
55757;BME280;41676;44.610;44.078;2023-07-31T14:10:56;99606.41;;;32.79;34.56
55757;BME280;41676;44.610;44.078;2023-07-31T14:15:57;99579.56;;;32.76;33.97
55757;BME280;41676;44.610;44.078;2023-07-31T14:20:58;99534.34;;;32.43;34.61
55757;BME280;41676;44.610;44.078;2023-07-31T14:25:58;99535.84;;;32.32;33.93
55757;BME280;41676;44.610;44.078;2023-07-31T14:30:59;99612.47;;;32.63;33.78
55757;BME280;41676;44.610;44.078;2023-07-31T14:36:00;99602.38;;;32.55;34.29
55757;BME280;41676;44.610;44.078;2023-07-31T14:41:01;99463.19;;;31.53;34.90
55757;BME280;41676;44.610;44.078;2023-07-31T14:46:02;99574.06;;;32.25;34.45
55757;BME280;41676;44.610;44.078;2023-07-31T14:51:03;99583.66;;;32.10;34.46
55757;BME280;41676;44.610;44.078;2023-07-31T14:56:04;99502.47;;;31.45;35.15
55757;BME280;41676;44.610;44.078;2023-07-31T15:01:04;99534.91;;;31.43;34.78
55757;BME280;41676;44.610;44.078;2023-07-31T15:06:05;99600.38;;;31.79;35.40
55757;BME280;41676;44.610;44.078;2023-07-31T15:11:09;99618.00;;;31.95;34.65
55757;BME280;41676;44.610;44.078;2023-07-31T15:16:10;99605.44;;;31.59;35.36
55757;BME280;41676;44.610;44.078;2023-07-31T15:21:10;99610.63;;;31.52;35.48
55757;BME280;41676;44.610;44.078;2023-07-31T15:26:11;99615.31;;;31.43;36.03
55757;BME280;41676;44.610;44.078;2023-07-31T15:31:13;99590.63;;;31.08;36.14
55757;BME280;41676;44.610;44.078;2023-07-31T15:36:13;99625.00;;;31.14;36.39
55757;BME280;41676;44.610;44.078;2023-07-31T15:41:14;99607.25;;;30.95;36.59
55757;BME280;41676;44.610;44.078;2023-07-31T15:46:17;99551.97;;;30.35;36.91
55757;BME280;41676;44.610;44.078;2023-07-31T15:51:18;99626.69;;;30.67;37.31
55757;BME280;41676;44.610;44.078;2023-07-31T15:56:18;99631.16;;;30.54;37.13
55757;BME280;41676;44.610;44.078;2023-07-31T16:01:19;99629.84;;;30.34;37.76
55757;BME280;41676;44.610;44.078;2023-07-31T16:06:20;99640.59;;;30.22;38.33
55757;BME280;41676;44.610;44.078;2023-07-31T16:11:21;99607.84;;;29.86;38.67
55757;BME280;41676;44.610;44.078;2023-07-31T16:16:22;99560.34;;;29.37;39.13
55757;BME280;41676;44.610;44.078;2023-07-31T16:21:23;99621.88;;;29.62;39.33
55757;BME280;41676;44.610;44.078;2023-07-31T16:26:24;99634.00;;;29.47;40.03
55757;BME280;41676;44.610;44.078;2023-07-31T16:31:25;99647.28;;;29.40;40.14
55757;BME280;41676;44.610;44.078;2023-07-31T16:36:26;99636.44;;;29.12;40.59
55757;BME280;41676;44.610;44.078;2023-07-31T16:41:26;99591.16;;;28.70;40.63
55757;BME280;41676;44.610;44.078;2023-07-31T16:46:27;99637.28;;;28.85;41.12
55757;BME280;41676;44.610;44.078;2023-07-31T16:51:28;99605.97;;;28.41;41.61
55757;BME280;41676;44.610;44.078;2023-07-31T16:56:29;99617.69;;;28.28;42.08
55757;BME280;41676;44.610;44.078;2023-07-31T17:01:31;99653.47;;;28.26;42.70
55757;BME280;41676;44.610;44.078;2023-07-31T17:06:33;99663.41;;;28.22;43.29
55757;BME280;41676;44.610;44.078;2023-07-31T17:11:35;99609.50;;;27.67;43.72
55757;BME280;41676;44.610;44.078;2023-07-31T17:16:36;99693.13;;;28.10;43.99
55757;BME280;41676;44.610;44.078;2023-07-31T17:21:37;99623.47;;;27.47;44.65
55757;BME280;41676;44.610;44.078;2023-07-31T17:26:38;99648.81;;;27.47;45.21
55757;BME280;41676;44.610;44.078;2023-07-31T17:31:38;99713.69;;;27.69;45.37
55757;BME280;41676;44.610;44.078;2023-07-31T17:36:41;99707.28;;;27.60;45.67
55757;BME280;41676;44.610;44.078;2023-07-31T17:41:42;99715.41;;;27.46;46.21
55757;BME280;41676;44.610;44.078;2023-07-31T17:46:43;99676.28;;;27.13;46.64
55757;BME280;41676;44.610;44.078;2023-07-31T17:51:44;99721.22;;;27.21;47.03
55757;BME280;41676;44.610;44.078;2023-07-31T17:56:44;99711.16;;;27.16;47.54
55757;BME280;41676;44.610;44.078;2023-07-31T18:01:45;99714.75;;;27.12;47.71
55757;BME280;41676;44.610;44.078;2023-07-31T18:06:46;99724.56;;;27.13;47.97
55757;BME280;41676;44.610;44.078;2023-07-31T18:11:47;99656.78;;;26.63;48.16
55757;BME280;41676;44.610;44.078;2023-07-31T18:16:47;99729.41;;;26.97;48.63
55757;BME280;41676;44.610;44.078;2023-07-31T18:21:48;99712.19;;;26.77;48.69
55757;BME280;41676;44.610;44.078;2023-07-31T18:26:49;99752.66;;;26.89;48.82
55757;BME280;41676;44.610;44.078;2023-07-31T18:31:50;99746.28;;;26.75;48.87
55757;BME280;41676;44.610;44.078;2023-07-31T18:36:51;99674.91;;;26.25;48.66
55757;BME280;41676;44.610;44.078;2023-07-31T18:41:52;99714.81;;;26.34;49.09
55757;BME280;41676;44.610;44.078;2023-07-31T18:46:52;99756.59;;;26.54;48.84
55757;BME280;41676;44.610;44.078;2023-07-31T18:51:53;99660.88;;;25.78;48.99
55757;BME280;41676;44.610;44.078;2023-07-31T18:56:54;99694.56;;;25.87;49.30
55757;BME280;41676;44.610;44.078;2023-07-31T19:01:55;99670.75;;;25.69;49.40
55757;BME280;41676;44.610;44.078;2023-07-31T19:06:55;99688.94;;;25.73;49.43
55757;BME280;41676;44.610;44.078;2023-07-31T19:11:56;99724.22;;;25.89;49.46
55757;BME280;41676;44.610;44.078;2023-07-31T19:16:57;99660.59;;;25.45;49.86
55757;BME280;41676;44.610;44.078;2023-07-31T19:21:58;99606.72;;;25.08;49.97
55757;BME280;41676;44.610;44.078;2023-07-31T19:26:59;99669.63;;;25.36;49.97
55757;BME280;41676;44.610;44.078;2023-07-31T19:32:00;99731.94;;;25.71;50.05
55757;BME280;41676;44.610;44.078;2023-07-31T19:37:00;99558.16;;;24.52;49.99
55757;BME280;41676;44.610;44.078;2023-07-31T19:42:01;99660.78;;;25.15;50.49
55757;BME280;41676;44.610;44.078;2023-07-31T19:47:02;99758.34;;;25.66;50.94
55757;BME280;41676;44.610;44.078;2023-07-31T19:52:03;99683.63;;;25.09;50.88
55757;BME280;41676;44.610;44.078;2023-07-31T19:57:04;99682.59;;;24.99;51.26
55757;BME280;41676;44.610;44.078;2023-07-31T20:02:06;99666.13;;;24.80;51.63
55757;BME280;41676;44.610;44.078;2023-07-31T20:07:07;99589.19;;;24.25;51.76
55757;BME280;41676;44.610;44.078;2023-07-31T20:12:08;99751.84;;;25.17;51.78
55757;BME280;41676;44.610;44.078;2023-07-31T20:17:09;99690.59;;;24.70;52.27
55757;BME280;41676;44.610;44.078;2023-07-31T20:22:10;99573.56;;;23.86;52.69
55757;BME280;41676;44.610;44.078;2023-07-31T20:27:11;99643.75;;;24.24;52.96
55757;BME280;41676;44.610;44.078;2023-07-31T20:32:11;99749.78;;;24.78;53.38
55757;BME280;41676;44.610;44.078;2023-07-31T20:37:12;99691.47;;;24.40;53.97
55757;BME280;41676;44.610;44.078;2023-07-31T20:42:13;99713.47;;;24.49;54.00
55757;BME280;41676;44.610;44.078;2023-07-31T20:47:16;99680.09;;;24.23;54.18
55757;BME280;41676;44.610;44.078;2023-07-31T20:52:16;99640.56;;;23.86;54.46
55757;BME280;41676;44.610;44.078;2023-07-31T20:57:17;99722.16;;;24.30;54.90
55757;BME280;41676;44.610;44.078;2023-07-31T21:02:18;99663.88;;;23.87;54.85
55757;BME280;41676;44.610;44.078;2023-07-31T21:07:19;99741.16;;;24.30;55.26
55757;BME280;41676;44.610;44.078;2023-07-31T21:12:19;99701.31;;;24.00;55.71
55757;BME280;41676;44.610;44.078;2023-07-31T21:17:20;99667.09;;;23.68;56.43
55757;BME280;41676;44.610;44.078;2023-07-31T21:22:21;99730.59;;;23.98;56.58
55757;BME280;41676;44.610;44.078;2023-07-31T21:27:22;99647.84;;;23.50;56.83
55757;BME280;41676;44.610;44.078;2023-07-31T21:32:25;99730.31;;;24.10;56.43
55757;BME280;41676;44.610;44.078;2023-07-31T21:37:26;99582.16;;;22.91;57.98
55757;BME280;41676;44.610;44.078;2023-07-31T21:42:26;99729.75;;;23.67;58.27
55757;BME280;41676;44.610;44.078;2023-07-31T21:47:27;99657.31;;;23.21;58.48
55757;BME280;41676;44.610;44.078;2023-07-31T21:52:28;99719.16;;;23.60;58.93
55757;BME280;41676;44.610;44.078;2023-07-31T21:57:29;99678.72;;;23.28;59.26
55757;BME280;41676;44.610;44.078;2023-07-31T22:02:30;99708.28;;;23.40;59.64
55757;BME280;41676;44.610;44.078;2023-07-31T22:07:30;99721.56;;;23.41;60.32
55757;BME280;41676;44.610;44.078;2023-07-31T22:12:31;99713.41;;;23.31;61.27
55757;BME280;41676;44.610;44.078;2023-07-31T22:17:32;99690.00;;;22.99;61.53
55757;BME280;41676;44.610;44.078;2023-07-31T22:22:34;99519.53;;;21.84;62.79
55757;BME280;41676;44.610;44.078;2023-07-31T22:27:35;99664.09;;;22.61;63.42
55757;BME280;41676;44.610;44.078;2023-07-31T22:32:35;99720.56;;;22.90;63.43
55757;BME280;41676;44.610;44.078;2023-07-31T22:37:36;99638.75;;;22.25;63.42
55757;BME280;41676;44.610;44.078;2023-07-31T22:42:37;99628.63;;;22.10;63.46
55757;BME280;41676;44.610;44.078;2023-07-31T22:47:38;99701.72;;;22.58;63.39
55757;BME280;41676;44.610;44.078;2023-07-31T22:52:40;99572.75;;;21.78;63.59
55757;BME280;41676;44.610;44.078;2023-07-31T22:57:41;99653.09;;;22.25;63.90
55757;BME280;41676;44.610;44.078;2023-07-31T23:02:42;99621.84;;;22.07;63.44
55757;BME280;41676;44.610;44.078;2023-07-31T23:07:42;99723.19;;;22.74;63.55
55757;BME280;41676;44.610;44.078;2023-07-31T23:12:43;99620.22;;;22.06;63.65
55757;BME280;41676;44.610;44.078;2023-07-31T23:17:44;99577.59;;;21.76;63.95
55757;BME280;41676;44.610;44.078;2023-07-31T23:22:45;99624.78;;;22.01;64.43
55757;BME280;41676;44.610;44.078;2023-07-31T23:27:45;99665.38;;;22.38;64.13
55757;BME280;41676;44.610;44.078;2023-07-31T23:32:46;99681.09;;;22.46;63.99
55757;BME280;41676;44.610;44.078;2023-07-31T23:37:47;99713.72;;;22.72;64.00
55757;BME280;41676;44.610;44.078;2023-07-31T23:42:47;99690.00;;;22.42;64.99
55757;BME280;41676;44.610;44.078;2023-07-31T23:47:48;99698.03;;;22.31;65.47
55757;BME280;41676;44.610;44.078;2023-07-31T23:52:49;99724.91;;;22.43;65.49
55757;BME280;41676;44.610;44.078;2023-07-31T23:57:51;99715.47;;;22.46;65.52
